Time;durP1;ratioP1;P1;durP2;ratioP2;P2;SDS_P1;SDS_P2;PMS_P1;PMS_P2;Temp;Humidity;BMP_temperature;BMP_pressure;BME280_temperature;BME280_humidity;BME280_pressure;Samples;Min_cycle;Max_cycle;Signal;HPM_P1;HPM_P2
2020/12/29 00:02:00;;;;;;;4.37;3.00;;;1.40;99.90;;;;;;5075315;28;20182;-77
2020/12/29 00:04:26;;;;;;;6.23;3.83;;;1.50;99.90;;;;;;5053945;28;20197;-77
2020/12/29 00:06:53;;;;;;;5.00;3.90;;;1.50;99.90;;;;;;5067054;28;20209;-77
2020/12/29 00:09:22;;;;;;;4.80;2.47;;;1.50;99.90;;;;;;5068217;28;20193;-77
2020/12/29 00:11:49;;;;;;;6.37;4.00;;;1.60;99.90;;;;;;5066937;28;20212;-77
2020/12/29 00:14:15;;;;;;;6.03;3.70;;;1.50;99.90;;;;;;5075602;28;20205;-77
2020/12/29 00:16:41;;;;;;;5.47;2.87;;;1.50;99.90;;;;;;5065700;28;20719;-78
2020/12/29 00:19:12;;;;;;;3.87;3.53;;;1.40;99.90;;;;;;5066459;28;20182;-77
2020/12/29 00:21:38;;;;;;;3.93;3.20;;;1.50;99.90;;;;;;5066103;28;20178;-77
2020/12/29 00:24:04;;;;;;;6.87;4.27;;;1.40;99.90;;;;;;5064555;28;20249;-77
2020/12/29 00:26:29;;;;;;;6.03;4.40;;;1.40;99.90;;;;;;5064327;28;20350;-77
2020/12/29 00:28:55;;;;;;;3.27;2.53;;;1.40;99.90;;;;;;5064878;28;20193;-77
2020/12/29 00:31:22;;;;;;;4.53;3.30;;;1.40;99.90;;;;;;5066268;28;20255;-78
2020/12/29 00:33:49;;;;;;;4.00;3.17;;;1.30;99.90;;;;;;5065999;28;20215;-77
2020/12/29 00:36:15;;;;;;;7.10;4.07;;;1.30;99.90;;;;;;5064476;28;20209;-78
2020/12/29 00:38:41;;;;;;;4.63;3.87;;;1.30;99.90;;;;;;5066097;28;20194;-77
2020/12/29 00:41:08;;;;;;;5.67;3.80;;;1.30;99.90;;;;;;5066844;28;20182;-77
2020/12/29 00:43:35;;;;;;;4.40;3.00;;;1.20;99.90;;;;;;5065518;28;20189;-77
2020/12/29 00:46:08;;;;;;;3.87;3.07;;;1.20;99.90;;;;;;5064201;28;20202;-76
2020/12/29 00:48:34;;;;;;;3.93;3.13;;;1.20;99.90;;;;;;5064306;28;20189;-76
2020/12/29 00:51:08;;;;;;;4.53;3.30;;;1.10;99.90;;;;;;5056141;28;20267;-77
2020/12/29 00:53:36;;;;;;;4.53;3.00;;;1.00;99.90;;;;;;5064559;28;20193;-77
2020/12/29 00:56:03;;;;;;;3.43;2.63;;;1.00;99.90;;;;;;5072500;28;20205;-78
2020/12/29 00:58:28;;;;;;;4.20;2.80;;;0.90;99.90;;;;;;5064586;28;20211;-77
2020/12/29 01:00:54;;;;;;;3.70;2.77;;;0.90;99.90;;;;;;5065257;28;20181;-76
2020/12/29 01:03:20;;;;;;;6.37;3.47;;;0.90;99.90;;;;;;5065850;28;20198;-78
2020/12/29 01:05:46;;;;;;;4.23;3.07;;;0.90;99.90;;;;;;5065232;28;20280;-77
2020/12/29 01:08:12;;;;;;;3.40;2.97;;;0.80;99.90;;;;;;5066137;28;20186;-78
2020/12/29 01:10:39;;;;;;;4.47;3.20;;;0.80;99.90;;;;;;5064102;28;20191;-76
2020/12/29 01:13:06;;;;;;;4.13;2.60;;;0.70;99.90;;;;;;5065266;28;20185;-77
2020/12/29 01:15:32;;;;;;;6.33;3.50;;;0.70;99.90;;;;;;5063081;28;20224;-77
2020/12/29 01:17:57;;;;;;;7.17;4.37;;;0.60;99.90;;;;;;5066234;28;20181;-77
2020/12/29 01:20:25;;;;;;;4.17;3.03;;;0.50;99.90;;;;;;5065920;28;20185;-76
2020/12/29 01:22:54;;;;;;;3.07;2.77;;;0.40;99.90;;;;;;5066592;28;20571;-77
2020/12/29 01:25:21;;;;;;;3.50;3.20;;;0.40;99.90;;;;;;5063653;28;21144;-76
2020/12/29 01:27:47;;;;;;;4.13;3.53;;;0.50;99.90;;;;;;5065916;28;20647;-77
2020/12/29 01:30:13;;;;;;;4.23;3.37;;;0.50;99.90;;;;;;5069405;28;20694;-78
2020/12/29 01:32:39;;;;;;;3.63;2.90;;;0.50;99.90;;;;;;5068297;28;20243;-77
2020/12/29 01:35:05;;;;;;;4.43;3.57;;;0.50;99.90;;;;;;5067813;28;20298;-77
2020/12/29 01:37:32;;;;;;;5.37;2.90;;;0.50;99.90;;;;;;5069269;28;21288;-78
2020/12/29 01:39:57;;;;;;;3.63;2.87;;;0.40;99.90;;;;;;5068247;28;20177;-77
2020/12/29 01:42:23;;;;;;;3.20;2.90;;;0.40;99.90;;;;;;5068096;28;20181;-77
2020/12/29 01:44:49;;;;;;;3.80;2.80;;;0.40;99.90;;;;;;5065852;28;20209;-78
2020/12/29 01:47:14;;;;;;;4.37;3.67;;;0.40;99.90;;;;;;5065833;28;20189;-76
2020/12/29 01:49:40;;;;;;;4.10;3.30;;;0.40;99.90;;;;;;5066312;28;20245;-76
2020/12/29 01:52:06;;;;;;;3.50;2.77;;;0.40;99.90;;;;;;5066771;28;20185;-76
2020/12/29 01:54:31;;;;;;;4.93;2.83;;;0.30;99.90;;;;;;5065267;28;20351;-76
2020/12/29 01:56:57;;;;;;;3.63;3.03;;;0.30;99.90;;;;;;5065969;28;20193;-76
2020/12/29 01:59:23;;;;;;;5.33;3.70;;;0.20;99.90;;;;;;5064684;28;20194;-76
2020/12/29 02:01:50;;;;;;;3.33;2.77;;;0.20;99.90;;;;;;5064970;28;20200;-77
2020/12/29 02:04:16;;;;;;;3.87;3.17;;;0.10;99.90;;;;;;5068731;28;20224;-77
2020/12/29 02:10:05;;;;;;;4.00;2.47;;;0.00;99.90;;;;;;5068707;28;20271;-78
2020/12/29 02:12:32;;;;;;;4.87;3.30;;;0.00;99.90;;;;;;5068488;28;20583;-77
2020/12/29 02:14:59;;;;;;;9.60;3.50;;;0.00;99.90;;;;;;5067508;28;20626;-77
2020/12/29 02:17:25;;;;;;;4.80;3.47;;;0.10;99.90;;;;;;5068108;28;20192;-78
2020/12/29 02:19:51;;;;;;;4.30;3.47;;;0.00;99.90;;;;;;5067379;28;20193;-78
2020/12/29 02:22:25;;;;;;;2.40;2.20;;;-0.10;99.90;;;;;;5068778;28;20189;-79
2020/12/29 02:24:59;;;;;;;3.50;2.57;;;-0.10;99.90;;;;;;5065942;28;20270;-76
2020/12/29 02:27:28;;;;;;;4.80;3.90;;;-0.10;99.90;;;;;;5068484;28;20188;-76
2020/12/29 02:29:54;;;;;;;5.03;3.00;;;-0.10;99.90;;;;;;5066995;28;20280;-77
2020/12/29 02:32:20;;;;;;;2.43;2.23;;;-0.20;99.90;;;;;;5067395;28;20296;-76
2020/12/29 02:34:47;;;;;;;2.67;2.47;;;-0.20;99.90;;;;;;5075853;28;20698;-77
2020/12/29 02:37:13;;;;;;;2.93;2.53;;;-0.30;99.90;;;;;;5067721;28;20209;-77
2020/12/29 02:39:41;;;;;;;4.00;3.30;;;-0.30;99.90;;;;;;5067690;28;20262;-78
2020/12/29 02:42:08;;;;;;;6.30;3.73;;;-0.30;99.90;;;;;;5067534;28;20235;-77
2020/12/29 02:44:34;;;;;;;3.47;2.60;;;-0.30;99.90;;;;;;5066456;28;20193;-76
2020/12/29 02:47:00;;;;;;;3.93;3.23;;;-0.40;99.90;;;;;;5065824;28;20193;-77
2020/12/29 02:49:26;;;;;;;2.77;2.27;;;-0.40;99.90;;;;;;5068483;28;20769;-77
2020/12/29 02:51:52;;;;;;;3.40;2.37;;;-0.50;99.90;;;;;;5068308;28;20205;-77
2020/12/29 02:54:17;;;;;;;2.93;2.23;;;-0.50;99.90;;;;;;5068041;28;20259;-77
2020/12/29 02:56:44;;;;;;;3.10;2.20;;;-0.50;99.90;;;;;;5067383;28;20805;-76
2020/12/29 02:59:10;;;;;;;4.07;3.07;;;-0.50;99.90;;;;;;5069397;28;20185;-76
2020/12/29 03:01:36;;;;;;;2.50;1.70;;;-0.40;99.90;;;;;;5069865;28;20177;-77
2020/12/29 03:04:02;;;;;;;3.20;2.37;;;-0.40;99.90;;;;;;5067513;28;20650;-78
2020/12/29 03:06:27;;;;;;;3.97;3.17;;;-0.40;99.90;;;;;;5067593;28;20752;-78
2020/12/29 03:08:53;;;;;;;4.33;3.33;;;-0.40;99.90;;;;;;5066080;28;20181;-77
2020/12/29 03:11:30;;;;;;;3.40;2.50;;;-0.40;99.90;;;;;;5069406;28;20189;-77
2020/12/29 03:13:59;;;;;;;4.27;2.37;;;-0.40;99.90;;;;;;5068871;28;20208;-77
2020/12/29 03:16:26;;;;;;;3.37;2.70;;;-0.40;99.90;;;;;;5072497;28;20273;-77
2020/12/29 03:18:53;;;;;;;3.10;2.20;;;-0.40;99.90;;;;;;5068447;28;20185;-76
2020/12/29 03:21:18;;;;;;;3.27;2.40;;;-0.40;99.90;;;;;;5066159;28;20235;-76
2020/12/29 03:23:44;;;;;;;4.70;3.13;;;-0.40;99.90;;;;;;5056556;28;20181;-77
2020/12/29 03:26:10;;;;;;;3.57;2.80;;;-0.40;99.90;;;;;;5083069;28;20236;-77
2020/12/29 03:28:37;;;;;;;2.93;2.63;;;-0.40;99.90;;;;;;5071845;28;20185;-78
2020/12/29 03:31:04;;;;;;;5.50;2.97;;;-0.30;99.90;;;;;;5067767;28;20204;-78
2020/12/29 03:33:30;;;;;;;2.93;2.60;;;-0.30;99.90;;;;;;5067112;28;20213;-76
2020/12/29 03:35:55;;;;;;;2.93;2.23;;;-0.30;99.90;;;;;;5066845;28;20239;-76
2020/12/29 03:38:22;;;;;;;2.97;2.30;;;-0.30;99.90;;;;;;5058458;28;20185;-77
2020/12/29 03:40:48;;;;;;;1.80;1.67;;;-0.40;99.90;;;;;;5066671;28;20269;-77
2020/12/29 03:43:15;;;;;;;3.60;2.50;;;-0.40;99.90;;;;;;5067162;28;20533;-76
2020/12/29 03:45:45;;;;;;;2.97;2.43;;;-0.50;99.90;;;;;;5067338;28;20213;-78
2020/12/29 03:48:11;;;;;;;2.00;1.67;;;-0.50;99.90;;;;;;5065762;28;20195;-78
2020/12/29 03:50:38;;;;;;;3.30;2.70;;;-0.50;99.90;;;;;;5066384;28;20188;-77
2020/12/29 03:53:05;;;;;;;2.50;2.10;;;-0.50;99.90;;;;;;5065398;28;20198;-78
2020/12/29 03:55:32;;;;;;;2.73;2.40;;;-0.50;99.90;;;;;;5065019;28;20304;-78
2020/12/29 03:57:57;;;;;;;2.87;1.90;;;-0.50;99.90;;;;;;5068176;28;20208;-77
2020/12/29 04:00:23;;;;;;;3.17;2.53;;;-0.50;99.90;;;;;;5066914;28;20182;-77
2020/12/29 04:02:49;;;;;;;2.73;1.73;;;-0.50;99.90;;;;;;5069533;28;20721;-76
2020/12/29 04:05:15;;;;;;;2.23;1.90;;;-0.50;99.90;;;;;;5069546;28;20217;-76
2020/12/29 04:07:40;;;;;;;2.00;1.70;;;-0.40;99.90;;;;;;5070539;28;20193;-77
2020/12/29 04:10:06;;;;;;;2.50;1.90;;;-0.40;99.90;;;;;;5070214;28;20186;-76
2020/12/29 04:12:32;;;;;;;2.47;2.10;;;-0.40;99.90;;;;;;5066406;28;20212;-78
2020/12/29 04:14:58;;;;;;;3.00;1.97;;;-0.40;99.90;;;;;;5064825;28;20224;-77
2020/12/29 04:17:23;;;;;;;2.53;2.33;;;-0.50;99.90;;;;;;5059596;28;20639;-77
2020/12/29 04:19:49;;;;;;;3.03;1.90;;;-0.50;99.90;;;;;;5086049;28;20677;-77
2020/12/29 04:22:14;;;;;;;2.13;1.93;;;-0.50;99.90;;;;;;5071324;28;20197;-77
2020/12/29 04:24:40;;;;;;;2.00;1.83;;;-0.50;99.90;;;;;;5065493;28;20276;-77
2020/12/29 04:27:06;;;;;;;2.33;1.97;;;-0.60;99.90;;;;;;5055890;28;20193;-77
2020/12/29 04:29:31;;;;;;;2.53;2.00;;;-0.60;99.90;;;;;;5057479;28;20551;-78
2020/12/29 04:31:57;;;;;;;2.73;2.03;;;-0.60;99.90;;;;;;5065286;28;20185;-77
2020/12/29 04:34:22;;;;;;;2.40;1.83;;;-0.60;99.90;;;;;;5064965;28;20213;-77
2020/12/29 04:36:52;;;;;;;2.70;2.50;;;-0.60;99.90;;;;;;5066013;28;20201;-77
2020/12/29 04:39:18;;;;;;;2.30;2.10;;;-0.70;99.90;;;;;;5068312;28;20263;-77
2020/12/29 04:41:46;;;;;;;2.60;1.60;;;-0.70;99.90;;;;;;5072402;28;20632;-78
2020/12/29 04:44:11;;;;;;;3.20;2.43;;;-0.70;99.90;;;;;;5071046;28;20193;-78
2020/12/29 04:46:38;;;;;;;2.03;1.50;;;-0.80;99.90;;;;;;5071146;28;20209;-77
2020/12/29 04:49:04;;;;;;;3.03;2.10;;;-0.70;99.90;;;;;;5061201;28;20198;-77
2020/12/29 04:51:30;;;;;;;2.10;1.93;;;-0.70;99.90;;;;;;5072245;28;20196;-78
2020/12/29 04:53:57;;;;;;;2.17;1.63;;;-0.70;99.90;;;;;;5065033;28;20235;-78
2020/12/29 04:56:32;;;;;;;3.63;2.60;;;-0.80;99.90;;;;;;5056433;28;21088;-78
2020/12/29 04:59:04;;;;;;;2.37;1.73;;;-0.80;99.90;;;;;;5065675;28;20184;-77
2020/12/29 05:01:37;;;;;;;1.90;1.80;;;-0.80;99.90;;;;;;5073271;28;20189;-77
2020/12/29 05:04:02;;;;;;;3.13;2.43;;;-0.80;99.90;;;;;;5073425;28;20280;-77
2020/12/29 05:06:28;;;;;;;1.90;1.80;;;-0.90;99.90;;;;;;5069686;28;20216;-77
2020/12/29 05:08:54;;;;;;;2.13;1.43;;;-0.90;99.90;;;;;;5070303;28;20186;-78
2020/12/29 05:11:24;;;;;;;1.47;1.20;;;-1.00;99.90;;;;;;5071448;28;20198;-77
2020/12/29 05:13:49;;;;;;;2.47;1.87;;;-1.00;99.90;;;;;;5070355;28;20194;-77
2020/12/29 05:16:16;;;;;;;2.07;1.53;;;-1.00;99.90;;;;;;5070783;28;20214;-78
2020/12/29 05:18:42;;;;;;;3.53;2.17;;;-1.10;99.90;;;;;;5067921;28;20181;-78
2020/12/29 05:21:08;;;;;;;2.20;1.83;;;-1.10;99.90;;;;;;5064224;28;20708;-78
2020/12/29 05:23:37;;;;;;;2.30;1.87;;;-1.10;99.90;;;;;;5064207;28;20189;-77
2020/12/29 05:26:04;;;;;;;2.07;1.73;;;-1.10;99.90;;;;;;5065804;28;20209;-77
2020/12/29 05:28:29;;;;;;;1.37;1.27;;;-1.10;99.90;;;;;;5064741;28;20264;-79
2020/12/29 05:30:57;;;;;;;4.13;1.33;;;-1.00;99.90;;;;;;5064135;28;20276;-77
2020/12/29 05:33:23;;;;;;;1.50;1.30;;;-1.00;99.90;;;;;;5065405;28;20838;-77
2020/12/29 05:35:53;;;;;;;1.90;1.47;;;-1.00;99.90;;;;;;5064209;28;20213;-75
2020/12/29 05:38:19;;;;;;;2.30;1.63;;;-0.90;99.90;;;;;;5070603;28;20551;-77
2020/12/29 05:40:47;;;;;;;2.83;2.37;;;-0.80;99.90;;;;;;5086691;28;20195;-78
2020/12/29 05:43:13;;;;;;;1.50;1.40;;;-0.80;99.90;;;;;;5069733;28;20192;-77
2020/12/29 05:45:39;;;;;;;1.77;1.23;;;-0.80;99.90;;;;;;5070816;28;20209;-78
2020/12/29 05:48:05;;;;;;;1.87;1.50;;;-0.90;99.90;;;;;;5069759;28;20192;-78
2020/12/29 05:50:32;;;;;;;2.17;1.63;;;-0.90;99.90;;;;;;5062781;28;20538;-77
2020/12/29 05:53:19;;;;;;;1.47;1.37;;;-1.00;99.90;;;;;;5071512;28;21059;-77
2020/12/29 05:55:46;;;;;;;1.37;1.07;;;-1.00;99.90;;;;;;5071644;28;20217;-77
2020/12/29 05:58:11;;;;;;;2.00;1.30;;;-1.00;99.90;;;;;;5071706;28;20705;-78
2020/12/29 06:00:41;;;;;;;1.80;1.20;;;-0.90;99.90;;;;;;5087283;28;20193;-77
2020/12/29 06:03:08;;;;;;;2.00;1.20;;;-0.80;99.90;;;;;;5072113;28;20213;-77
2020/12/29 06:05:36;;;;;;;2.10;1.90;;;-0.70;99.90;;;;;;5061917;28;20213;-78
2020/12/29 06:08:04;;;;;;;2.80;1.67;;;-0.60;99.90;;;;;;5068464;28;20253;-77
2020/12/29 06:10:32;;;;;;;1.77;1.27;;;-0.50;99.90;;;;;;5066970;28;20194;-77
2020/12/29 06:13:02;;;;;;;2.20;1.77;;;-0.40;99.90;;;;;;5066436;28;20185;-77
2020/12/29 06:15:31;;;;;;;1.43;0.97;;;-0.40;99.90;;;;;;5066091;28;20213;-77
2020/12/29 06:18:02;;;;;;;1.17;1.03;;;-0.40;99.90;;;;;;5067590;28;20185;-77
2020/12/29 06:20:50;;;;;;;1.53;1.10;;;-0.40;99.90;;;;;;5070378;28;20615;-78
2020/12/29 06:23:19;;;;;;;0.63;0.63;;;-0.40;99.90;;;;;;5076204;28;20188;-78
2020/12/29 06:25:46;;;;;;;1.80;1.20;;;-0.50;99.90;;;;;;5070045;28;20204;-78
2020/12/29 06:28:18;;;;;;;1.63;1.53;;;-0.60;99.90;;;;;;5070609;28;20185;-78
2020/12/29 06:30:44;;;;;;;3.23;1.67;;;-0.60;99.90;;;;;;5077173;28;20189;-78
2020/12/29 06:33:17;;;;;;;1.53;1.43;;;-0.60;99.90;;;;;;5069878;28;20205;-79
2020/12/29 06:35:43;;;;;;;2.60;2.03;;;-0.60;99.90;;;;;;5068159;28;20243;-79
2020/12/29 06:38:19;;;;;;;1.00;0.70;;;-0.60;99.90;;;;;;5070477;28;20209;-77
2020/12/29 06:40:46;;;;;;;3.50;2.47;;;-0.50;99.90;;;;;;5075843;28;20663;-72
2020/12/29 06:43:12;;;;;;;7.07;5.07;;;-0.50;99.90;;;;;;5065714;28;20181;-73
2020/12/29 06:45:38;;;;;;;4.97;4.47;;;-0.40;99.90;;;;;;5064895;28;20212;-77
2020/12/29 06:48:21;;;;;;;6.83;4.87;;;-0.30;99.90;;;;;;5068629;28;20186;-77
2020/12/29 06:50:47;;;;;;;6.70;5.10;;;-0.30;99.90;;;;;;5069479;28;20268;-78
2020/12/29 06:53:17;;;;;;;3.30;2.63;;;-0.30;99.90;;;;;;5071282;28;20216;-78
2020/12/29 06:55:49;;;;;;;3.40;2.43;;;-0.20;99.90;;;;;;5070069;28;20221;-79
2020/12/29 06:58:30;;;;;;;5.17;2.93;;;-0.20;99.90;;;;;;5067908;28;20192;-77
2020/12/29 07:01:26;;;;;;;12.17;8.07;;;-0.10;99.90;;;;;;5069621;28;20861;-77
2020/12/29 07:04:10;;;;;;;22.07;12.70;;;-0.10;99.90;;;;;;5068741;28;21099;-77
2020/12/29 07:06:36;;;;;;;8.03;4.20;;;0.00;99.90;;;;;;5068272;28;20201;-77
2020/12/29 07:09:09;;;;;;;2.93;2.30;;;0.00;99.90;;;;;;5070439;28;20259;-79
2020/12/29 07:11:35;;;;;;;6.77;4.93;;;0.10;99.90;;;;;;5071114;28;20651;-78
2020/12/29 07:14:05;;;;;;;4.90;3.20;;;0.10;99.90;;;;;;5070305;28;20189;-77
2020/12/29 07:16:31;;;;;;;2.47;2.10;;;0.10;99.90;;;;;;5070106;28;20690;-77
2020/12/29 07:19:13;;;;;;;5.07;3.17;;;0.10;99.90;;;;;;5071092;28;20655;-78
2020/12/29 07:21:39;;;;;;;11.90;8.87;;;0.10;99.90;;;;;;5070528;28;20184;-77
2020/12/29 07:24:06;;;;;;;7.60;5.77;;;0.10;99.90;;;;;;5070164;28;20996;-78
2020/12/29 07:26:40;;;;;;;8.10;4.60;;;0.10;99.90;;;;;;5067360;28;20213;-77
2020/12/29 07:29:07;;;;;;;6.27;5.00;;;0.20;99.90;;;;;;5059226;28;20758;-77
2020/12/29 07:31:43;;;;;;;3.00;2.50;;;0.20;99.90;;;;;;5069801;28;20189;-77
2020/12/29 07:34:13;;;;;;;10.00;7.17;;;0.30;99.90;;;;;;5075411;28;20299;-77
2020/12/29 07:36:47;;;;;;;2.40;2.03;;;0.20;99.90;;;;;;5066698;28;21000;-77
2020/12/29 07:39:14;;;;;;;12.27;8.50;;;0.30;99.90;;;;;;5068493;28;20683;-78
2020/12/29 07:41:41;;;;;;;7.40;5.93;;;0.30;99.90;;;;;;5067529;28;20211;-78
2020/12/29 07:44:07;;;;;;;6.47;3.83;;;0.30;99.90;;;;;;5065916;28;20216;-78
2020/12/29 07:46:33;;;;;;;8.67;4.93;;;0.30;99.90;;;;;;5061619;28;20291;-77
2020/12/29 07:49:05;;;;;;;4.73;2.87;;;0.30;99.90;;;;;;5064262;28;20566;-77
2020/12/29 07:51:31;;;;;;;7.17;4.90;;;0.30;99.90;;;;;;5065317;28;20674;-78
2020/12/29 07:54:04;;;;;;;5.80;3.37;;;0.30;99.90;;;;;;5065257;28;20181;-77
2020/12/29 07:56:31;;;;;;;3.97;3.60;;;0.30;99.90;;;;;;5063051;28;20312;-78
2020/12/29 07:59:10;;;;;;;5.13;3.80;;;0.40;99.90;;;;;;5064557;28;20193;-78
2020/12/29 08:01:48;;;;;;;4.53;3.43;;;0.40;99.90;;;;;;5063686;28;20212;-78
2020/12/29 08:04:28;;;;;;;2.53;2.27;;;0.50;99.90;;;;;;5065830;28;20203;-78
2020/12/29 08:06:54;;;;;;;7.80;5.20;;;0.60;99.90;;;;;;5065037;28;20189;-78
2020/12/29 08:09:20;;;;;;;3.97;2.10;;;0.70;99.90;;;;;;5066196;28;20192;-79
2020/12/29 08:11:45;;;;;;;4.57;2.73;;;0.70;99.90;;;;;;5063236;28;20559;-77
2020/12/29 08:14:12;;;;;;;5.53;4.00;;;0.70;99.90;;;;;;5065541;28;20209;-77
2020/12/29 08:16:38;;;;;;;3.00;2.70;;;0.80;99.90;;;;;;5064831;28;20280;-79
2020/12/29 08:19:09;;;;;;;5.87;4.13;;;0.80;99.90;;;;;;5080458;28;20228;-77
2020/12/29 08:21:34;;;;;;;4.97;2.60;;;0.80;99.90;;;;;;5065787;28;20189;-78
2020/12/29 08:24:01;;;;;;;4.80;3.33;;;0.80;99.90;;;;;;5067231;28;20189;-78
2020/12/29 08:26:27;;;;;;;11.20;6.77;;;0.90;99.90;;;;;;5064090;28;20198;-78
2020/12/29 08:28:53;;;;;;;5.43;3.83;;;0.90;99.90;;;;;;5066588;28;20265;-78
2020/12/29 08:31:20;;;;;;;16.67;7.57;;;1.00;99.90;;;;;;5066985;28;20174;-79
2020/12/29 08:33:49;;;;;;;5.43;3.40;;;1.00;99.90;;;;;;5057248;28;20205;-78
2020/12/29 08:36:30;;;;;;;4.37;2.73;;;1.00;99.90;;;;;;5065158;28;20209;-77
2020/12/29 08:39:16;;;;;;;1.80;1.40;;;0.90;99.90;;;;;;5064777;28;20665;-78
2020/12/29 08:41:51;;;;;;;4.10;2.17;;;0.90;99.90;;;;;;5066613;28;20994;-78
2020/12/29 08:44:18;;;;;;;1.50;1.20;;;0.90;99.90;;;;;;5064422;28;20264;-78
2020/12/29 08:46:43;;;;;;;1.37;0.93;;;0.90;99.90;;;;;;5055591;28;20340;-78
2020/12/29 08:49:09;;;;;;;1.83;1.43;;;0.90;99.90;;;;;;5066211;28;20666;-78
2020/12/29 08:51:40;;;;;;;1.40;1.13;;;0.80;99.90;;;;;;5064591;28;20193;-77
2020/12/29 08:54:14;;;;;;;2.20;1.43;;;0.90;99.90;;;;;;5056359;28;20298;-78
2020/12/29 08:56:41;;;;;;;16.40;9.33;;;1.00;99.90;;;;;;5071738;28;20208;-78
2020/12/29 08:59:09;;;;;;;9.87;5.20;;;1.00;99.90;;;;;;5065402;28;21095;-78
2020/12/29 09:01:37;;;;;;;8.47;4.40;;;1.10;99.90;;;;;;5066268;28;20260;-79
2020/12/29 09:04:39;;;;;;;7.50;4.03;;;1.10;99.90;;;;;;5062690;28;20197;-78
2020/12/29 09:07:09;;;;;;;2.03;1.77;;;1.10;99.90;;;;;;5062743;28;20177;-78
2020/12/29 09:09:38;;;;;;;6.57;1.77;;;1.20;99.90;;;;;;5066366;28;20178;-77
2020/12/29 09:12:07;;;;;;;2.30;1.77;;;1.10;99.90;;;;;;5070219;28;20189;-78
2020/12/29 09:14:33;;;;;;;3.07;1.50;;;1.10;99.90;;;;;;5071043;28;20414;-77
2020/12/29 09:17:00;;;;;;;2.10;1.87;;;1.20;99.90;;;;;;5070036;28;20553;-78
2020/12/29 09:19:25;;;;;;;1.70;1.50;;;1.20;99.90;;;;;;5072754;28;20583;-77
2020/12/29 09:22:03;;;;;;;3.13;1.73;;;1.20;99.90;;;;;;5073103;28;20248;-77
2020/12/29 09:24:29;;;;;;;2.20;1.67;;;1.30;99.90;;;;;;5072866;28;20252;-78
2020/12/29 09:26:54;;;;;;;1.73;1.20;;;1.20;99.90;;;;;;5085989;28;20275;-77
2020/12/29 09:29:20;;;;;;;2.17;1.80;;;1.20;99.90;;;;;;5071391;28;20209;-75
2020/12/29 09:31:52;;;;;;;3.20;1.93;;;1.20;99.90;;;;;;5069121;28;20639;-77
2020/12/29 09:34:18;;;;;;;1.57;1.47;;;1.20;99.90;;;;;;5072004;28;20209;-78
2020/12/29 09:36:44;;;;;;;2.47;1.20;;;1.10;99.90;;;;;;5069854;28;20263;-78
2020/12/29 09:39:09;;;;;;;2.20;1.17;;;1.10;99.90;;;;;;5066684;28;20189;-77
2020/12/29 09:41:35;;;;;;;1.93;1.30;;;1.10;99.90;;;;;;5068229;28;20682;-78
2020/12/29 09:44:01;;;;;;;2.27;2.07;;;1.20;99.90;;;;;;5066390;28;21012;-78
2020/12/29 09:46:42;;;;;;;3.53;2.67;;;1.20;99.90;;;;;;5064965;28;20198;-79
2020/12/29 09:49:08;;;;;;;6.87;3.67;;;1.30;99.90;;;;;;5057505;28;20766;-78
2020/12/29 09:51:34;;;;;;;6.07;3.20;;;1.30;99.90;;;;;;5067229;28;20178;-78
2020/12/29 09:54:00;;;;;;;12.30;6.10;;;1.40;99.90;;;;;;5058121;28;20737;-78
2020/12/29 09:56:27;;;;;;;14.57;6.77;;;1.40;99.90;;;;;;5066889;28;20222;-78
2020/12/29 09:58:52;;;;;;;15.87;8.43;;;1.50;99.90;;;;;;5069001;28;20181;-77
2020/12/29 10:01:18;;;;;;;13.80;7.10;;;1.60;99.90;;;;;;5066634;28;20182;-78
2020/12/29 10:03:44;;;;;;;12.53;5.80;;;1.70;99.90;;;;;;5065538;28;20284;-78
2020/12/29 10:06:09;;;;;;;10.27;5.97;;;1.70;99.90;;;;;;5067309;28;20263;-79
2020/12/29 10:08:37;;;;;;;6.37;4.07;;;1.90;99.90;;;;;;5066121;28;20194;-78
2020/12/29 10:11:02;;;;;;;4.27;2.97;;;2.10;99.90;;;;;;5068029;28;20178;-77
2020/12/29 10:13:28;;;;;;;4.37;2.80;;;2.00;99.90;;;;;;5066988;28;20188;-78
2020/12/29 10:15:54;;;;;;;3.37;2.87;;;2.10;99.90;;;;;;5065160;28;20213;-77
2020/12/29 10:18:19;;;;;;;4.27;2.30;;;2.10;99.90;;;;;;5066707;28;20659;-79
2020/12/29 10:20:45;;;;;;;2.80;2.37;;;2.20;99.90;;;;;;5069007;28;20202;-78
2020/12/29 10:23:11;;;;;;;2.10;1.77;;;2.30;99.90;;;;;;5067022;28;20269;-77
2020/12/29 10:25:36;;;;;;;2.43;2.20;;;2.30;99.90;;;;;;5067024;28;20229;-77
2020/12/29 10:28:02;;;;;;;3.33;2.00;;;2.30;99.90;;;;;;5068079;28;20223;-78
2020/12/29 10:30:28;;;;;;;5.17;1.93;;;2.30;99.90;;;;;;5066787;28;20198;-78
2020/12/29 10:32:54;;;;;;;2.53;1.90;;;2.40;99.90;;;;;;5066513;28;20287;-78
2020/12/29 10:35:19;;;;;;;3.07;2.20;;;2.40;99.90;;;;;;5065706;28;20423;-77
2020/12/29 10:37:46;;;;;;;2.27;2.07;;;2.50;99.90;;;;;;5067461;28;20185;-78
2020/12/29 10:40:11;;;;;;;3.13;2.83;;;2.50;99.90;;;;;;5060670;28;20298;-78
2020/12/29 10:42:38;;;;;;;1.77;1.63;;;2.60;99.90;;;;;;5071434;28;20190;-77
2020/12/29 10:45:03;;;;;;;1.73;1.57;;;2.60;99.90;;;;;;5065935;28;20224;-77
2020/12/29 10:47:29;;;;;;;2.07;1.83;;;2.70;99.90;;;;;;5069390;28;20639;-78
2020/12/29 10:49:55;;;;;;;2.30;1.90;;;2.70;99.90;;;;;;5069622;28;20213;-77
2020/12/29 10:52:20;;;;;;;2.83;2.17;;;2.80;99.90;;;;;;5069037;28;20239;-77
2020/12/29 10:54:46;;;;;;;2.47;1.80;;;2.80;99.90;;;;;;5070445;28;20221;-77
2020/12/29 10:57:11;;;;;;;2.47;2.10;;;2.80;99.90;;;;;;5069356;28;20359;-77
2020/12/29 10:59:37;;;;;;;2.27;1.70;;;2.80;99.90;;;;;;5069189;28;20263;-77
2020/12/29 11:02:04;;;;;;;1.87;1.63;;;2.80;99.90;;;;;;5068182;28;20194;-78
2020/12/29 11:04:29;;;;;;;1.00;1.00;;;2.90;99.90;;;;;;5069659;28;20193;-77
2020/12/29 11:06:55;;;;;;;3.67;1.77;;;2.80;99.90;;;;;;5067761;28;20647;-77
2020/12/29 11:09:20;;;;;;;2.27;2.00;;;2.90;99.90;;;;;;5068402;28;20194;-77
2020/12/29 11:11:47;;;;;;;2.53;1.97;;;2.90;99.90;;;;;;5069959;28;20198;-77
2020/12/29 11:14:13;;;;;;;2.40;2.20;;;3.00;99.90;;;;;;5069756;28;20308;-77
2020/12/29 11:16:38;;;;;;;2.67;1.93;;;3.10;99.90;;;;;;5068467;28;20734;-73
2020/12/29 11:19:04;;;;;;;2.23;1.70;;;3.10;99.90;;;;;;5066119;28;20186;-78
2020/12/29 11:21:29;;;;;;;2.20;1.80;;;3.30;99.90;;;;;;5068380;28;20185;-77
2020/12/29 11:23:55;;;;;;;1.70;1.60;;;3.30;99.90;;;;;;5066809;28;20274;-77
2020/12/29 11:26:21;;;;;;;3.27;2.20;;;3.40;99.90;;;;;;5063205;28;20206;-75
2020/12/29 11:28:48;;;;;;;2.43;1.90;;;3.40;99.90;;;;;;5063002;28;20182;-76
2020/12/29 11:31:21;;;;;;;1.60;1.47;;;3.40;99.90;;;;;;5063903;28;20197;-78
2020/12/29 11:33:47;;;;;;;2.23;1.73;;;3.40;99.90;;;;;;5064243;28;20273;-78
2020/12/29 11:36:22;;;;;;;3.03;1.90;;;3.50;99.90;;;;;;5066298;28;20441;-79
2020/12/29 11:38:48;;;;;;;1.47;1.30;;;3.50;99.90;;;;;;5067645;28;20283;-79
2020/12/29 11:41:14;;;;;;;2.90;1.97;;;3.50;99.90;;;;;;5066390;28;20288;-78
2020/12/29 11:43:40;;;;;;;3.93;2.13;;;3.60;99.90;;;;;;5065110;28;20678;-78
2020/12/29 11:46:07;;;;;;;1.40;1.30;;;3.50;99.90;;;;;;5064216;28;20212;-77
2020/12/29 11:48:33;;;;;;;1.93;1.77;;;3.50;99.90;;;;;;5067352;28;20214;-78
2020/12/29 11:50:59;;;;;;;1.53;1.27;;;3.50;99.90;;;;;;5066222;28;20193;-79
2020/12/29 11:53:28;;;;;;;2.20;1.70;;;3.60;99.90;;;;;;5066720;28;20182;-78
2020/12/29 11:55:54;;;;;;;1.33;1.23;;;3.60;99.90;;;;;;5055383;28;20221;-80
2020/12/29 11:58:19;;;;;;;2.30;1.77;;;3.60;99.90;;;;;;5065534;28;20177;-79
2020/12/29 12:00:45;;;;;;;1.80;1.40;;;3.70;99.90;;;;;;5064594;28;20197;-78
2020/12/29 12:03:11;;;;;;;2.07;1.60;;;3.70;99.90;;;;;;5065776;28;20201;-79
2020/12/29 12:05:37;;;;;;;2.33;1.47;;;3.90;99.90;;;;;;5065744;28;20269;-78
2020/12/29 12:08:03;;;;;;;1.67;1.13;;;3.90;99.90;;;;;;5066900;28;20251;-80
2020/12/29 12:10:28;;;;;;;1.67;1.57;;;3.90;99.90;;;;;;5065704;28;20304;-79
2020/12/29 12:12:55;;;;;;;2.57;1.80;;;3.90;99.90;;;;;;5065420;28;20185;-79
2020/12/29 12:15:21;;;;;;;1.50;1.40;;;3.80;99.90;;;;;;5064969;28;20322;-79
2020/12/29 12:17:47;;;;;;;2.33;1.97;;;3.80;99.90;;;;;;5064764;28;20186;-78
2020/12/29 12:20:12;;;;;;;2.83;2.63;;;3.80;99.90;;;;;;5065065;28;20223;-78
2020/12/29 12:22:38;;;;;;;1.53;1.40;;;3.80;99.90;;;;;;5054634;22;20287;-85
2020/12/29 12:25:04;;;;;;;1.90;1.70;;;3.70;99.90;;;;;;5044329;28;20192;-83
2020/12/29 12:27:30;;;;;;;1.73;1.63;;;3.60;99.90;;;;;;5052230;28;20217;-81
2020/12/29 12:29:55;;;;;;;2.03;1.83;;;3.60;99.90;;;;;;5045032;28;20190;-80
2020/12/29 12:32:21;;;;;;;2.20;1.83;;;3.60;99.90;;;;;;5036555;28;20206;-84
2020/12/29 12:34:47;;;;;;;2.53;1.77;;;3.60;99.90;;;;;;5022408;28;20206;-82
2020/12/29 12:37:13;;;;;;;1.43;1.33;;;3.70;99.90;;;;;;5023280;28;20189;-85
2020/12/29 12:39:41;;;;;;;1.73;1.50;;;3.70;99.90;;;;;;5021820;28;20293;-85
2020/12/29 12:42:09;;;;;;;2.17;1.60;;;3.70;99.90;;;;;;5023068;28;20206;-83
2020/12/29 12:44:35;;;;;;;1.67;1.23;;;3.70;99.90;;;;;;5022552;28;20178;-81
2020/12/29 12:47:04;;;;;;;2.70;1.43;;;3.70;99.90;;;;;;5023566;28;20187;-86
2020/12/29 12:49:29;;;;;;;1.50;1.30;;;3.70;99.90;;;;;;5026205;28;20179;-85
2020/12/29 12:51:55;;;;;;;1.70;1.27;;;3.70;99.90;;;;;;5024237;28;20215;-81
2020/12/29 12:54:22;;;;;;;1.27;1.17;;;3.80;99.90;;;;;;5020720;28;20580;-83
2020/12/29 12:56:52;;;;;;;1.80;1.37;;;3.70;99.90;;;;;;5019383;28;20309;-81
2020/12/29 12:59:18;;;;;;;2.13;1.93;;;3.70;99.90;;;;;;5019663;28;20194;-81